Terminal Aerodrome Forecast
Issued by NWS Charleston, WV

Current Version | Previous Version | Text Only | Print | Product List | Glossary Off
Versions: 1 2 3 4 5 6 7 8 9 10 11 12 13 14 15 16 17 18 19 20 21 22 23 24

000
FTUS41 KRLX 280900 AAA
TAFPKB
TAF AMD
KPKB 280905Z 2809/2906 25007KT P6SM SCT080
     FM281100 26009KT P6SM BKN018
     FM281500 27010G15KT P6SM SCT020
     FM281800 29011G16KT P6SM VCTS BKN035CB
     FM282100 30009G14KT P6SM BKN035
     FM290100 33005KT P6SM BKN070
      AMD NOT SKED=

USA.gov is the U.S. government's official web portal to all federal, state and local government web resources and services.